createdAt,value
2019-04-03T00:00:13.831Z,16.90
2019-04-03T00:02:42.461Z,17.80
2019-04-03T00:05:11.149Z,18.07
2019-04-03T00:07:39.707Z,16.60
2019-04-03T00:10:09.293Z,17.63
2019-04-03T00:12:40.481Z,17.37
2019-04-03T00:15:09.831Z,16.97
2019-04-03T00:17:38.408Z,18.03
2019-04-03T00:20:08.700Z,16.50
2019-04-03T00:22:38.301Z,17.23
2019-04-03T00:25:07.963Z,16.93
2019-04-03T00:27:36.571Z,16.00
2019-04-03T00:30:07.571Z,16.00
2019-04-03T00:32:36.595Z,17.03
2019-04-03T00:35:11.520Z,16.80
2019-04-03T00:37:40.066Z,16.27
2019-04-03T00:40:09.009Z,15.57
2019-04-03T00:42:37.592Z,16.60
2019-04-03T00:45:07.254Z,15.10
2019-04-03T00:47:36.143Z,17.60
2019-04-03T00:50:06.615Z,17.10
2019-04-03T00:52:35.528Z,17.27
2019-04-03T00:55:05.190Z,16.20
2019-04-03T00:57:33.752Z,15.47
2019-04-03T01:00:02.321Z,15.87
2019-04-03T01:02:30.885Z,16.30
2019-04-03T01:04:59.477Z,15.70
2019-04-03T01:07:29.264Z,16.13
2019-04-03T01:09:59.564Z,16.03
2019-04-03T01:12:30.361Z,15.97
2019-04-03T01:15:01.144Z,16.27
2019-04-03T01:17:29.089Z,15.07
2019-04-03T01:19:57.659Z,15.77
2019-04-03T01:22:26.212Z,15.70
2019-04-03T01:24:54.797Z,16.60
2019-04-03T01:27:23.448Z,16.90
2019-04-03T01:29:52.037Z,15.07
2019-04-03T01:32:20.689Z,15.67
2019-04-03T01:34:49.265Z,16.30
2019-04-03T01:37:19.004Z,16.13
2019-04-03T01:39:49.030Z,17.77
2019-04-03T01:42:18.240Z,17.20
2019-04-03T01:44:46.824Z,16.47
2019-04-03T01:47:15.541Z,16.63
2019-04-03T01:49:44.089Z,17.27
2019-04-03T01:52:12.655Z,18.40
2019-04-03T01:54:41.360Z,16.97
2019-04-03T01:57:09.916Z,16.60
2019-04-03T01:59:38.498Z,16.83
2019-04-03T02:02:08.538Z,18.67
2019-04-03T02:04:37.278Z,16.87
2019-04-03T02:07:05.833Z,18.33
2019-04-03T02:09:34.521Z,19.77
2019-04-03T02:12:03.166Z,18.83
2019-04-03T02:14:31.721Z,18.07
2019-04-03T02:17:00.300Z,18.07
2019-04-03T02:19:28.876Z,19.73
2019-04-03T02:21:58.469Z,19.37
2019-04-03T02:24:27.750Z,20.20
2019-04-03T02:26:56.331Z,18.37
2019-04-03T02:29:24.924Z,16.73
2019-04-03T02:31:53.568Z,16.93
2019-04-03T02:34:22.272Z,17.83
2019-04-03T02:36:51.125Z,17.93
2019-04-03T02:39:19.727Z,17.50
2019-04-03T02:41:48.901Z,17.47
2019-04-03T02:44:19.149Z,18.57
2019-04-03T02:46:47.942Z,17.40
2019-04-03T02:49:16.508Z,18.73
2019-04-03T02:51:46.741Z,18.63
2019-04-03T02:54:30.058Z,19.77
2019-04-03T02:56:59.240Z,18.70
2019-04-03T02:59:27.874Z,19.13
2019-04-03T03:01:56.468Z,19.20
2019-04-03T03:04:26.146Z,18.27
2019-04-03T03:06:55.132Z,19.43
2019-04-03T03:09:23.891Z,17.90
2019-04-03T03:11:55.229Z,18.57
2019-04-03T03:14:23.613Z,18.40
2019-04-03T03:16:53.216Z,18.53
2019-04-03T03:19:23.342Z,18.83
2019-04-03T03:21:54.995Z,18.20
2019-04-03T03:24:23.909Z,17.87
2019-04-03T03:26:52.950Z,17.80
2019-04-03T03:29:25.683Z,18.77
2019-04-03T03:32:11.561Z,18.00
2019-04-03T03:34:45.855Z,18.37
2019-04-03T03:36:59.998Z,17.67
2019-04-03T03:39:27.405Z,18.57
2019-04-03T03:41:58.561Z,20.40
2019-04-03T03:44:28.281Z,20.40
2019-04-03T03:47:01.488Z,20.93
2019-04-03T03:49:29.445Z,20.63
2019-04-03T03:52:02.613Z,21.77
2019-04-03T03:54:29.845Z,21.07
2019-04-03T03:56:59.153Z,21.20
2019-04-03T03:59:27.890Z,19.30
2019-04-03T04:01:56.518Z,20.73
2019-04-03T04:04:25.207Z,19.07
2019-04-03T04:06:53.968Z,19.50
2019-04-03T04:09:22.669Z,20.63
2019-04-03T04:11:52.289Z,20.53
2019-04-03T04:14:23.035Z,19.47
2019-04-03T04:16:51.833Z,20.33
2019-04-03T04:19:21.524Z,21.07
2019-04-03T04:21:50.476Z,19.87
2019-04-03T04:24:38.475Z,20.53
2019-04-03T04:27:07.034Z,18.13
2019-04-03T04:29:35.698Z,19.80
2019-04-03T04:32:04.282Z,19.77
2019-04-03T04:34:32.915Z,20.00
2019-04-03T04:37:02.846Z,19.30
2019-04-03T04:39:32.559Z,18.67
2019-04-03T04:42:03.484Z,20.27
2019-04-03T04:44:31.473Z,20.60
2019-04-03T04:47:00.040Z,20.03
2019-04-03T04:49:28.858Z,20.67
2019-04-03T04:51:57.627Z,19.53
2019-04-03T04:54:26.195Z,23.10
2019-04-03T04:56:54.747Z,22.17
2019-04-03T04:59:23.349Z,20.00
2019-04-03T05:01:51.914Z,19.83
2019-04-03T05:04:20.869Z,20.33
2019-04-03T05:06:49.549Z,19.93
2019-04-03T05:09:18.190Z,21.13
2019-04-03T05:11:46.998Z,20.50
2019-04-03T05:14:15.845Z,21.10
2019-04-03T05:16:45.868Z,20.57
2019-04-03T05:19:18.486Z,19.97
2019-04-03T05:21:45.003Z,19.37
2019-04-03T05:24:13.874Z,19.93
2019-04-03T05:26:42.737Z,21.40
2019-04-03T05:29:11.330Z,19.97
2019-04-03T05:31:39.924Z,19.97
2019-04-03T05:34:08.469Z,21.20
2019-04-03T05:36:37.333Z,18.70
2019-04-03T05:39:07.780Z,19.43
2019-04-03T05:41:36.508Z,19.30
2019-04-03T05:44:05.223Z,19.13
2019-04-03T05:46:36.720Z,18.23
2019-04-03T05:49:04.125Z,18.67
2019-04-03T05:51:32.757Z,24.70
2019-04-03T05:54:01.519Z,27.80
2019-04-03T05:56:30.089Z,19.23
2019-04-03T05:59:01.302Z,19.13
2019-04-03T06:01:29.065Z,18.33
2019-04-03T06:03:57.588Z,27.47
2019-04-03T06:06:26.170Z,20.00
2019-04-03T06:08:56.531Z,21.03
2019-04-03T06:11:24.960Z,18.37
2019-04-03T06:13:53.542Z,17.23
2019-04-03T06:16:24.559Z,17.77
2019-04-03T06:18:52.375Z,18.67
2019-04-03T06:21:21.181Z,19.57
2019-04-03T06:23:50.877Z,17.80
2019-04-03T06:26:20.047Z,18.83
2019-04-03T06:28:48.666Z,17.90
2019-04-03T06:31:17.210Z,17.77
2019-04-03T06:33:45.821Z,18.63
2019-04-03T06:36:16.858Z,18.67
2019-04-03T06:38:46.783Z,18.83
2019-04-03T06:41:15.340Z,18.67
2019-04-03T06:43:43.954Z,18.07
2019-04-03T06:46:12.674Z,18.60
2019-04-03T06:48:41.169Z,20.27
2019-04-03T06:51:09.752Z,19.17
2019-04-03T06:53:38.313Z,19.70
2019-04-03T06:56:08.676Z,19.57
2019-04-03T06:58:39.581Z,19.10
2019-04-03T07:01:07.504Z,19.57
2019-04-03T07:03:36.105Z,18.17
2019-04-03T07:06:07.757Z,17.43
2019-04-03T07:08:40.923Z,17.93
2019-04-03T07:11:09.363Z,16.77
2019-04-03T07:13:38.183Z,16.00
2019-04-03T07:16:06.723Z,15.60
2019-04-03T07:18:38.363Z,15.93
2019-04-03T07:21:07.356Z,15.37
2019-04-03T07:23:35.969Z,16.57
2019-04-03T07:26:05.209Z,17.57
2019-04-03T07:28:34.265Z,15.93
2019-04-03T07:31:03.096Z,15.87
2019-04-03T07:33:31.838Z,16.90
2019-04-03T07:36:00.596Z,15.23
2019-04-03T07:38:29.192Z,14.87
2019-04-03T07:41:01.425Z,17.07
2019-04-03T07:43:30.323Z,15.87
2019-04-03T07:45:59.002Z,16.83
2019-04-03T07:48:27.742Z,15.47
2019-04-03T07:50:56.316Z,16.33
2019-04-03T07:53:25.119Z,17.00
2019-04-03T07:55:55.352Z,16.07
2019-04-03T07:58:25.377Z,16.17
2019-04-03T08:00:55.712Z,17.37
2019-04-03T08:03:24.382Z,16.80
2019-04-03T08:05:55.803Z,16.40
2019-04-03T08:08:23.332Z,17.07
2019-04-03T08:10:52.040Z,16.90
2019-04-03T08:13:20.612Z,16.37
2019-04-03T08:15:49.196Z,17.00
2019-04-03T08:18:20.657Z,17.30
2019-04-03T08:20:48.035Z,17.70
2019-04-03T08:23:16.577Z,16.47
2019-04-03T08:25:48.417Z,17.03
2019-04-03T08:28:15.577Z,16.27
2019-04-03T08:30:44.627Z,15.53
2019-04-03T08:33:17.570Z,16.13
2019-04-03T08:35:43.766Z,16.87
2019-04-03T08:38:13.412Z,16.43
2019-04-03T08:40:57.225Z,16.37
2019-04-03T08:43:25.813Z,17.00
2019-04-03T08:45:54.377Z,15.07
2019-04-03T08:48:22.939Z,15.60
2019-04-03T08:50:51.523Z,15.53
2019-04-03T08:53:20.167Z,17.03
2019-04-03T08:55:48.738Z,16.83
2019-04-03T08:58:17.332Z,14.60
2019-04-03T09:00:49.719Z,16.37
2019-04-03T09:03:21.655Z,15.20
2019-04-03T09:05:50.896Z,16.00
2019-04-03T09:08:20.344Z,15.67
2019-04-03T09:10:49.253Z,15.37
2019-04-03T09:13:22.439Z,16.40
2019-04-03T09:15:50.137Z,17.30
2019-04-03T09:18:19.097Z,16.70
2019-04-03T09:20:47.720Z,17.03
2019-04-03T09:23:16.269Z,16.37
2019-04-03T09:25:45.055Z,18.03
2019-04-03T09:28:13.639Z,16.73
2019-04-03T09:30:42.229Z,18.13
2019-04-03T09:33:10.849Z,17.43
2019-04-03T09:35:42.291Z,18.37
2019-04-03T09:38:11.354Z,18.87
2019-04-03T09:40:39.889Z,17.40
2019-04-03T09:43:08.459Z,18.60
2019-04-03T09:45:37.144Z,18.10
2019-04-03T09:48:06.216Z,16.67
2019-04-03T09:50:35.030Z,17.20
2019-04-03T09:53:04.156Z,17.40
2019-04-03T09:55:36.025Z,16.90
2019-04-03T09:58:04.200Z,17.80
2019-04-03T10:00:33.007Z,18.00
2019-04-03T10:03:01.835Z,17.90
2019-04-03T10:05:30.606Z,18.57
2019-04-03T10:07:59.342Z,18.07
2019-04-03T10:10:28.127Z,17.23
2019-04-03T10:12:56.660Z,16.20
2019-04-03T10:15:32.724Z,16.23
2019-04-03T10:18:01.042Z,15.30
2019-04-03T10:20:29.685Z,18.10
2019-04-03T10:22:58.522Z,16.97
2019-04-03T10:25:31.070Z,17.10
2019-04-03T10:28:01.148Z,16.47
2019-04-03T10:30:29.948Z,15.90
2019-04-03T10:32:59.577Z,15.70
2019-04-03T10:35:28.719Z,15.63
2019-04-03T10:37:57.654Z,14.87
2019-04-03T10:41:27.653Z,15.70
2019-04-03T10:43:05.912Z,16.30
2019-04-03T10:45:33.990Z,15.43
2019-04-03T10:48:05.879Z,16.23
2019-04-03T10:50:36.239Z,15.10
2019-04-03T10:53:03.612Z,14.80
2019-04-03T10:55:32.480Z,15.60
2019-04-03T10:58:02.435Z,13.90
2019-04-03T11:00:31.341Z,13.73
2019-04-03T11:03:00.056Z,13.93
2019-04-03T11:05:28.696Z,13.93
2019-04-03T11:07:57.336Z,12.27
2019-04-03T11:10:26.247Z,13.33
2019-04-03T11:12:54.932Z,13.63
2019-04-03T11:15:23.643Z,14.73
2019-04-03T11:17:52.565Z,15.00
2019-04-03T11:20:21.231Z,14.23
2019-04-03T11:22:49.954Z,14.30
2019-04-03T11:25:18.655Z,13.93
2019-04-03T11:27:47.431Z,13.17
2019-04-03T11:30:23.592Z,11.47
2019-04-03T11:32:48.608Z,12.43
2019-04-03T11:35:18.904Z,12.47
2019-04-03T11:37:47.668Z,11.53
2019-04-03T11:40:18.126Z,11.40
2019-04-03T11:42:47.736Z,10.97
2019-04-03T11:45:18.236Z,11.53
2019-04-03T11:47:47.356Z,11.77
2019-04-03T11:50:18.128Z,11.63
2019-04-03T11:52:46.823Z,10.73
2019-04-03T11:55:16.015Z,9.40
2019-04-03T11:57:47.459Z,9.47
2019-04-03T12:00:20.308Z,8.60
2019-04-03T12:02:49.054Z,8.70
2019-04-03T12:05:20.589Z,9.00
2019-04-03T12:07:48.599Z,9.10
2019-04-03T12:10:17.340Z,7.87
2019-04-03T12:12:46.009Z,8.37
2019-04-03T12:15:16.203Z,8.60
2019-04-03T12:17:45.493Z,9.10
2019-04-03T12:20:16.460Z,9.30
2019-04-03T12:22:45.252Z,8.70
2019-04-03T12:25:14.543Z,7.83
2019-04-03T12:27:44.934Z,8.40
2019-04-03T12:30:14.071Z,9.00
2019-04-03T12:32:48.593Z,9.13
2019-04-03T12:35:15.196Z,9.13
2019-04-03T12:37:43.831Z,8.07
2019-04-03T12:40:13.088Z,9.90
2019-04-03T12:42:41.770Z,9.97
2019-04-03T12:45:11.032Z,9.60
2019-04-03T12:47:42.831Z,8.37
2019-04-03T12:50:12.903Z,9.43
2019-04-03T12:52:43.236Z,8.13
2019-04-03T12:55:11.720Z,7.83
2019-04-03T12:57:40.400Z,7.63
2019-04-03T13:00:12.992Z,8.30
2019-04-03T13:02:42.351Z,8.70
2019-04-03T13:05:12.150Z,7.87
2019-04-03T13:07:40.801Z,8.23
2019-04-03T13:10:10.225Z,7.93
2019-04-03T13:12:39.183Z,7.23
2019-04-03T13:15:11.767Z,7.23
2019-04-03T13:17:42.890Z,7.20
2019-04-03T13:20:12.265Z,7.03
2019-04-03T13:22:42.537Z,7.20
2019-04-03T13:25:11.222Z,7.47
2019-04-03T13:27:39.866Z,6.70
2019-04-03T13:30:12.203Z,7.10
2019-04-03T13:32:39.837Z,7.60
2019-04-03T13:35:09.192Z,8.17
2019-04-03T13:37:37.803Z,6.90
2019-04-03T13:40:10.622Z,7.30
2019-04-03T13:42:39.206Z,6.87
2019-04-03T13:45:09.443Z,7.53
2019-04-03T13:47:41.601Z,7.63
2019-04-03T13:50:09.830Z,7.60
2019-04-03T13:52:42.339Z,7.47
2019-04-03T13:55:09.127Z,7.90
2019-04-03T13:57:37.850Z,8.10
2019-04-03T14:00:18.183Z,7.93
2019-04-03T14:02:38.609Z,7.70
2019-04-03T14:05:08.897Z,8.10
2019-04-03T14:07:40.383Z,7.70
2019-04-03T14:10:09.783Z,7.70
2019-04-03T14:12:43.057Z,8.73
2019-04-03T14:15:09.145Z,8.70
2019-04-03T14:17:37.783Z,8.13
2019-04-03T14:20:08.103Z,7.90
2019-04-03T14:22:37.385Z,8.27
2019-04-03T14:25:17.919Z,8.30
2019-04-03T14:27:38.441Z,7.90
2019-04-03T14:30:11.068Z,7.23
2019-04-03T14:32:39.393Z,7.93
2019-04-03T14:35:38.241Z,8.93
2019-04-03T14:37:38.827Z,8.53
2019-04-03T14:40:11.372Z,7.50
2019-04-03T14:42:38.853Z,7.30
2019-04-03T14:45:09.151Z,7.00
2019-04-03T14:47:37.757Z,7.77
2019-04-03T14:50:08.160Z,7.43
2019-04-03T14:52:37.243Z,7.93
2019-04-03T14:55:20.297Z,8.37
2019-04-03T14:57:39.307Z,7.73
2019-04-03T15:00:24.798Z,7.80
2019-04-03T15:02:41.367Z,8.03
2019-04-03T15:05:10.819Z,8.20
2019-04-03T15:07:40.414Z,8.83
2019-04-03T15:10:09.573Z,7.03
2019-04-03T15:12:39.800Z,7.90
2019-04-03T15:15:09.632Z,7.73
2019-04-03T15:17:38.877Z,7.27
2019-04-03T15:20:09.585Z,6.57
2019-04-03T15:22:38.434Z,7.07
2019-04-03T15:25:08.753Z,7.50
2019-04-03T15:27:38.120Z,7.43
2019-04-03T15:30:10.875Z,8.00
2019-04-03T15:32:39.682Z,7.63
2019-04-03T15:35:09.161Z,8.67
2019-04-03T15:37:39.928Z,8.03
2019-04-03T15:40:08.392Z,7.80
2019-04-03T15:42:40.241Z,8.37
2019-04-03T15:45:09.019Z,7.73
2019-04-03T15:47:41.748Z,7.17
2019-04-03T15:50:08.978Z,7.53
2019-04-03T15:52:38.573Z,9.00
2019-04-03T15:55:07.898Z,8.17
2019-04-03T15:57:39.496Z,8.40
2019-04-03T16:00:09.932Z,8.37
2019-04-03T16:02:39.227Z,8.17
2019-04-03T16:05:08.462Z,8.17
2019-04-03T16:07:40.467Z,8.07
2019-04-03T16:10:07.621Z,8.63
2019-04-03T16:12:38.333Z,7.90
2019-04-03T16:15:09.575Z,8.20
2019-04-03T16:17:39.153Z,8.90
2019-04-03T16:20:09.023Z,8.27
2019-04-03T16:22:38.167Z,9.33
2019-04-03T16:25:08.003Z,7.90
2019-04-03T16:27:36.677Z,8.30
2019-04-03T16:30:08.261Z,8.10
2019-04-03T16:32:37.087Z,8.37
2019-04-03T16:35:07.734Z,8.20
2019-04-03T16:37:37.118Z,10.00
2019-04-03T16:40:09.368Z,8.40
2019-04-03T16:42:38.091Z,8.83
2019-04-03T16:45:09.417Z,8.60
2019-04-03T16:47:39.184Z,8.87
2019-04-03T16:50:09.080Z,9.33
2019-04-03T16:52:38.665Z,9.63
2019-04-03T16:55:09.217Z,8.90
2019-04-03T16:57:38.314Z,10.03
2019-04-03T17:00:10.076Z,9.30
2019-04-03T17:02:38.840Z,10.10
2019-04-03T17:05:10.472Z,9.47
2019-04-03T17:07:38.599Z,9.50
2019-04-03T17:10:10.454Z,9.30
2019-04-03T17:12:39.290Z,9.57
2019-04-03T17:15:09.757Z,10.30
2019-04-03T17:17:39.066Z,9.10
2019-04-03T17:20:09.399Z,10.93
2019-04-03T17:22:40.212Z,10.33
2019-04-03T17:25:08.884Z,10.90
2019-04-03T17:27:37.812Z,10.53
2019-04-03T17:30:10.068Z,10.03
2019-04-03T17:32:39.183Z,10.27
2019-04-03T17:35:08.619Z,9.73
2019-04-03T17:37:37.520Z,9.77
2019-04-03T17:40:11.077Z,10.00
2019-04-03T17:42:40.237Z,10.30
2019-04-03T17:45:09.632Z,9.10
2019-04-03T17:47:38.224Z,10.23
2019-04-03T17:50:11.568Z,9.77
2019-04-03T17:52:40.264Z,10.60
2019-04-03T17:55:12.002Z,8.17
2019-04-03T17:57:40.637Z,8.23
2019-04-03T18:00:15.415Z,8.93
2019-04-03T18:02:44.066Z,8.33
2019-04-03T18:05:13.220Z,7.67
2019-04-03T18:07:41.797Z,7.80
2019-04-03T18:10:12.615Z,8.53
2019-04-03T18:12:41.098Z,8.17
2019-04-03T18:15:10.567Z,6.43
2019-04-03T18:17:39.160Z,6.37
2019-04-03T18:20:12.562Z,5.90
2019-04-03T18:22:39.851Z,5.40
2019-04-03T18:25:08.752Z,5.53
2019-04-03T18:27:37.280Z,4.77
2019-04-03T18:30:11.428Z,4.63
2019-04-03T18:32:38.857Z,4.47
2019-04-03T18:35:07.997Z,4.20
2019-04-03T18:37:36.617Z,3.93
2019-04-03T18:40:07.949Z,3.97
2019-04-03T18:42:36.508Z,3.47
2019-04-03T18:45:06.762Z,3.50
2019-04-03T18:47:41.024Z,3.60
2019-04-03T18:50:09.663Z,5.33
2019-04-03T18:52:38.713Z,3.67
2019-04-03T18:55:07.278Z,4.30
2019-04-03T18:57:36.649Z,3.63
2019-04-03T19:00:08.288Z,3.50
2019-04-03T19:02:36.992Z,4.13
2019-04-03T19:05:10.083Z,3.83
2019-04-03T19:07:37.768Z,4.07
2019-04-03T19:10:07.894Z,3.53
2019-04-03T19:12:36.624Z,3.30
2019-04-03T19:15:07.240Z,3.57
2019-04-03T19:17:35.977Z,3.30
2019-04-03T19:20:10.694Z,3.30
2019-04-03T19:22:36.674Z,3.80
2019-04-03T19:25:07.703Z,3.63
2019-04-03T19:27:36.378Z,3.30
2019-04-03T19:30:07.866Z,3.60
2019-04-03T19:32:36.578Z,3.97
2019-04-03T19:35:09.104Z,3.43
2019-04-03T19:37:37.512Z,3.77
2019-04-03T19:40:09.875Z,3.83
2019-04-03T19:42:38.741Z,5.63
2019-04-03T19:45:08.881Z,4.93
2019-04-03T19:47:37.504Z,4.40
2019-04-03T19:50:08.141Z,3.93
2019-04-03T19:52:37.327Z,3.60
2019-04-03T19:55:07.322Z,3.90
2019-04-03T19:57:35.882Z,3.77
2019-04-03T20:00:08.822Z,3.53
2019-04-03T20:02:38.245Z,3.47
2019-04-03T20:05:07.943Z,4.17
2019-04-03T20:07:36.648Z,4.37
2019-04-03T20:10:10.092Z,4.33
2019-04-03T20:12:38.797Z,4.17
2019-04-03T20:15:08.921Z,3.60
2019-04-03T20:17:37.566Z,3.90
2019-04-03T20:20:07.678Z,4.53
2019-04-03T20:22:37.872Z,4.40
2019-04-03T20:25:07.222Z,4.47
2019-04-03T20:27:35.944Z,4.27
2019-04-03T20:30:06.551Z,3.73
2019-04-03T20:32:35.224Z,3.80
2019-04-03T20:35:05.118Z,4.07
2019-04-03T20:37:33.800Z,4.63
2019-04-03T20:40:02.614Z,5.50
2019-04-03T20:42:31.291Z,6.57
2019-04-03T20:44:59.848Z,6.90
2019-04-03T20:47:28.433Z,6.60
2019-04-03T20:49:58.236Z,7.37
2019-04-03T20:52:26.915Z,7.20
2019-04-03T20:54:55.558Z,7.10
2019-04-03T20:57:24.206Z,7.97
2019-04-03T21:00:01.666Z,7.67
2019-04-03T21:02:23.293Z,7.97
2019-04-03T21:04:51.852Z,9.73
2019-04-03T21:07:23.654Z,10.17
2019-04-03T21:09:50.665Z,9.90
2019-04-03T21:12:19.282Z,10.17
2019-04-03T21:14:47.926Z,10.03
2019-04-03T21:17:18.515Z,10.00
2019-04-03T21:19:46.858Z,11.23
2019-04-03T21:22:15.518Z,10.90
2019-04-03T21:24:44.100Z,11.03
2019-04-03T21:27:12.777Z,11.07
2019-04-03T21:29:41.372Z,8.57
2019-04-03T21:32:10.703Z,10.73
2019-04-03T21:34:39.385Z,9.27
2019-04-03T21:37:09.585Z,11.10
2019-04-03T21:39:38.208Z,11.03
2019-04-03T21:42:06.784Z,9.50
2019-04-03T21:44:35.356Z,10.60
2019-04-03T21:47:04.213Z,10.23
2019-04-03T21:49:32.910Z,8.97
2019-04-03T21:52:04.293Z,10.23
2019-04-03T21:54:32.834Z,9.13
2019-04-03T21:57:01.585Z,9.70
2019-04-03T21:59:31.777Z,10.10
2019-04-03T22:02:00.433Z,9.97
2019-04-03T22:04:29.194Z,9.57
2019-04-03T22:06:58.298Z,8.20
2019-04-03T22:09:34.524Z,8.50
2019-04-03T22:12:05.685Z,7.83
2019-04-03T22:14:35.782Z,7.43
2019-04-03T22:17:04.601Z,7.07
2019-04-03T22:19:33.386Z,7.10
2019-04-03T22:22:03.081Z,6.57
2019-04-03T22:24:32.357Z,6.63
2019-04-03T22:27:01.487Z,6.53
2019-04-03T22:29:30.071Z,6.77
2019-04-03T22:31:58.665Z,6.17
2019-04-03T22:34:29.623Z,5.37
2019-04-03T22:36:57.477Z,5.93
2019-04-03T22:39:26.229Z,5.90
2019-04-03T22:41:54.797Z,5.90
2019-04-03T22:44:23.373Z,5.10
2019-04-03T22:46:52.091Z,5.67
2019-04-03T22:49:22.373Z,4.90
2019-04-03T22:51:50.938Z,5.20
2019-04-03T22:54:19.514Z,5.13
2019-04-03T22:56:50.247Z,5.77
2019-04-03T22:59:19.437Z,5.37
2019-04-03T23:01:48.476Z,5.17
2019-04-03T23:04:21.948Z,5.17
2019-04-03T23:06:52.954Z,5.20
2019-04-03T23:09:24.733Z,4.57
2019-04-03T23:11:51.733Z,4.43
2019-04-03T23:14:20.416Z,4.67
2019-04-03T23:16:49.278Z,4.30
2019-04-03T23:19:18.890Z,4.37
2019-04-03T23:21:48.042Z,4.20
2019-04-03T23:24:16.962Z,4.77
2019-04-03T23:26:45.911Z,4.67
2019-04-03T23:29:14.458Z,4.40
2019-04-03T23:31:45.027Z,4.27
2019-04-03T23:34:13.237Z,4.47
2019-04-03T23:36:41.789Z,4.20
2019-04-03T23:39:29.891Z,4.87
2019-04-03T23:41:59.047Z,4.37
2019-04-03T23:44:27.717Z,4.50
2019-04-03T23:46:56.277Z,4.33
2019-04-03T23:49:24.958Z,4.23
2019-04-03T23:51:53.560Z,4.43
2019-04-03T23:54:22.437Z,4.27
2019-04-03T23:56:52.974Z,4.50
2019-04-03T23:59:21.571Z,4.90
